Time;durP1;ratioP1;P1;durP2;ratioP2;P2;SDS_P1;SDS_P2;PMS_P1;PMS_P2;Temp;Humidity;BMP_temperature;BMP_pressure;BME280_temperature;BME280_humidity;BME280_pressure;Samples;Min_cycle;Max_cycle;Signal;HPM_P1;HPM_P2
2022/01/11 00:00:31;;;;;;;;;;;;;;;-5.23;93.23;100061.15;1611595;88;21253;-75
2022/01/11 00:03:01;;;;;;;;;;;;;;;-5.23;93.27;100061.15;1602923;87;20123;-76
2022/01/11 00:05:40;;;;;;;;;;;;;;;-5.25;93.43;100064.03;1604073;87;20084;-76
2022/01/11 00:08:07;;;;;;;;;;;;;;;-5.25;93.35;100065.37;1625007;87;20124;-75
2022/01/11 00:10:47;;;;;;;;;;;;;;;-5.26;93.17;100071.75;1617385;87;20426;-75
2022/01/11 00:13:12;;;;;;;;;;;;;;;-5.29;92.89;100076.16;1636732;86;21118;-74
2022/01/11 00:15:39;;;;;;;;;;;;;;;-5.30;92.87;100073.68;1607890;87;20096;-75
2022/01/11 00:18:07;;;;;;;;;;;;;;;-5.36;92.04;100082.82;1606223;87;20167;-75
2022/01/11 00:20:38;;;;;;;;;;;;;;;-5.41;91.60;100082.59;1596471;89;20152;-75
2022/01/11 00:25:44;;;;;;;;;;;;;;;-5.46;91.28;100087.71;1612421;87;21175;-75
2022/01/11 00:28:13;;;;;;;;;;;;;;;-5.47;91.22;100086.06;1558811;90;21239;-75
2022/01/11 00:30:50;;;;;;;;;;;;;;;-5.47;90.96;100091.92;1608139;88;20144;-75
2022/01/11 00:33:25;;;;;;;;;;;;;;;-5.50;90.94;100082.95;1603638;88;20471;-77
2022/01/11 00:36:00;;;;;;;;;;;;;;;-5.51;91.01;100088.81;1592436;88;20179;-76
2022/01/11 00:38:33;;;;;;;;;;;;;;;-5.48;90.89;100086.26;1605400;87;20574;-78
2022/01/11 00:41:08;;;;;;;;;;;;;;;-5.48;91.12;100091.09;1603328;87;20139;-76
2022/01/11 00:43:35;;;;;;;;;;;;;;;-5.48;90.71;100085.75;1591183;87;20165;-78
2022/01/11 00:46:10;;;;;;;;;;;;;;;-5.48;90.58;100091.09;1598739;88;20207;-73
2022/01/11 00:48:39;;;;;;;;;;;;;;;-5.48;90.66;100082.25;1592513;88;20123;-76
2022/01/11 00:51:10;;;;;;;;;;;;;;;-5.49;90.51;100088.63;1593327;88;20161;-79
2022/01/11 00:53:45;;;;;;;;;;;;;;;-5.50;90.45;100085.63;1592590;88;20136;-79
2022/01/11 00:56:11;;;;;;;;;;;;;;;-5.50;90.64;100087.80;1610928;86;20183;-80
2022/01/11 00:58:37;;;;;;;;;;;;;;;-5.46;90.88;100085.03;1615707;87;20793;-79
2022/01/11 01:01:07;;;;;;;;;;;;;;;-5.48;90.22;100088.42;1616200;87;20158;-81
2022/01/11 01:03:40;;;;;;;;;;;;;;;-5.50;90.00;100098.50;1618438;88;21931;-82
2022/01/11 01:06:09;;;;;;;;;;;;;;;-5.51;90.47;100097.36;1625743;87;20455;-82
2022/01/11 01:08:42;;;;;;;;;;;;;;;-5.51;90.25;100101.37;1599563;88;20447;-81
2022/01/11 01:11:11;;;;;;;;;;;;;;;-5.51;89.20;100100.86;1607919;86;20212;-81
2022/01/11 01:13:44;;;;;;;;;;;;;;;-5.55;89.15;100109.48;1618348;87;20188;-80
2022/01/11 01:16:16;;;;;;;;;;;;;;;-5.55;89.38;100102.79;1616961;86;20145;-82
2022/01/11 01:18:46;;;;;;;;;;;;;;;-5.55;89.02;100104.95;1605532;87;20158;-78
2022/01/11 01:21:10;;;;;;;;;;;;;;;-5.55;88.97;100110.30;1631272;87;20103;-77
2022/01/11 01:23:52;;;;;;;;;;;;;;;-5.53;89.48;100108.77;1614775;87;21685;-79
2022/01/11 01:26:11;;;;;;;;;;;;;;;-5.52;89.48;100104.56;1611771;86;20091;-79
2022/01/11 01:28:40;;;;;;;;;;;;;;;-5.48;89.37;100109.83;1638381;86;21115;-77
2022/01/11 01:31:06;;;;;;;;;;;;;;;-5.46;89.44;100102.43;1620389;87;20145;-75
2022/01/11 01:33:34;;;;;;;;;;;;;;;-5.44;89.67;100103.05;1605106;88;20135;-75
2022/01/11 01:36:04;;;;;;;;;;;;;;;-5.42;89.31;100108.21;1614577;87;20423;-80
2022/01/11 01:38:36;;;;;;;;;;;;;;;-5.42;88.99;100102.86;1610405;87;20140;-77
2022/01/11 01:41:13;;;;;;;;;;;;;;;-5.42;89.28;100105.53;1627913;87;21195;-84
2022/01/11 01:43:40;;;;;;;;;;;;;;;-5.44;89.55;100108.41;1579924;87;20223;-77
2022/01/11 01:46:09;;;;;;;;;;;;;;;-5.44;89.55;100104.39;1607980;87;20100;-81
2022/01/11 01:48:37;;;;;;;;;;;;;;;-5.45;89.56;100110.77;1630712;87;20092;-81
2022/01/11 01:51:05;;;;;;;;;;;;;;;-5.46;89.66;100105.10;1626679;87;20443;-79
2022/01/11 01:53:38;;;;;;;;;;;;;;;-5.48;89.41;100114.35;1617200;87;21180;-79
2022/01/11 01:56:15;;;;;;;;;;;;;;;-5.53;89.46;100120.30;1631586;87;20120;-76
2022/01/11 01:58:44;;;;;;;;;;;;;;;-5.55;89.95;100122.34;1618937;88;20113;-76
2022/01/11 02:01:13;;;;;;;;;;;;;;;-5.58;89.92;100121.91;1616517;88;20140;-76
2022/01/11 02:03:42;;;;;;;;;;;;;;;-5.61;90.04;100128.98;1611140;88;20154;-76
2022/01/11 02:06:17;;;;;;;;;;;;;;;-5.62;90.09;100126.83;1602208;88;20105;-79
2022/01/11 02:08:47;;;;;;;;;;;;;;;-5.61;90.12;100123.13;1618133;88;20160;-78
2022/01/11 02:11:16;;;;;;;;;;;;;;;-5.62;89.79;100128.67;1614705;87;20447;-76
2022/01/11 02:13:46;;;;;;;;;;;;;;;-5.65;89.49;100128.55;1592538;87;20146;-75
2022/01/11 02:16:13;;;;;;;;;;;;;;;-5.66;89.38;100133.08;1604386;88;20155;-76
2022/01/11 02:18:41;;;;;;;;;;;;;;;-5.68;88.81;100132.95;1619983;87;21109;-76
2022/01/11 02:21:13;;;;;;;;;;;;;;;-5.70;88.43;100144.36;1612864;87;20132;-76
2022/01/11 02:23:45;;;;;;;;;;;;;;;-5.73;88.63;100148.77;1598683;88;20141;-76
2022/01/11 02:26:14;;;;;;;;;;;;;;;-5.74;88.60;100154.63;1572953;90;20476;-77
2022/01/11 02:28:50;;;;;;;;;;;;;;;-5.75;88.68;100151.63;1590587;89;20122;-77
2022/01/11 02:31:18;;;;;;;;;;;;;;;-5.74;88.94;100151.12;1605205;88;21181;-78
2022/01/11 02:33:52;;;;;;;;;;;;;;;-5.74;88.73;100150.61;1620858;88;20093;-81
2022/01/11 02:36:37;;;;;;;;;;;;;;;-5.77;88.73;100145.66;1592925;88;20149;-82
2022/01/11 02:39:07;;;;;;;;;;;;;;;-5.83;87.70;100149.64;1612563;88;20201;-80
2022/01/11 02:41:36;;;;;;;;;;;;;;;-5.85;87.91;100151.69;1615229;88;20435;-77
2022/01/11 02:44:09;;;;;;;;;;;;;;;-5.87;87.92;100150.55;1579684;88;21250;-77
2022/01/11 02:46:37;;;;;;;;;;;;;;;-5.86;87.46;100144.69;1575288;90;20464;-77
2022/01/11 02:49:08;;;;;;;;;;;;;;;-5.87;87.80;100147.05;1600610;87;20422;-79
2022/01/11 02:51:42;;;;;;;;;;;;;;;-5.84;87.64;100135.97;1619512;86;20097;-80
2022/01/11 02:54:11;;;;;;;;;;;;;;;-5.83;87.21;100145.64;1619459;85;20162;-79
2022/01/11 02:56:45;;;;;;;;;;;;;;;-5.81;87.25;100147.61;1617760;87;21053;-78
2022/01/11 02:59:14;;;;;;;;;;;;;;;-5.78;87.24;100143.20;1606035;86;20443;-79
2022/01/11 03:01:42;;;;;;;;;;;;;;;-5.78;86.65;100140.53;1605604;87;20155;-79
2022/01/11 03:04:17;;;;;;;;;;;;;;;-5.79;86.69;100145.56;1622324;87;20162;-80
2022/01/11 03:06:57;;;;;;;;;;;;;;;-5.81;86.92;100140.41;1604512;86;20106;-80
2022/01/11 03:09:18;;;;;;;;;;;;;;;-5.80;87.08;100149.26;1619620;87;21218;-79
2022/01/11 03:11:47;;;;;;;;;;;;;;;-5.81;87.11;100151.62;1598339;87;20156;-81
2022/01/11 03:14:16;;;;;;;;;;;;;;;-5.81;87.48;100156.97;1618620;87;20438;-81
2022/01/11 03:16:49;;;;;;;;;;;;;;;-5.79;87.71;100149.58;1595445;88;20163;-81
2022/01/11 03:19:17;;;;;;;;;;;;;;;-5.78;87.88;100156.06;1617157;87;20109;-81
2022/01/11 03:21:43;;;;;;;;;;;;;;;-5.76;87.97;100158.52;1613434;88;21063;-81
2022/01/11 03:24:15;;;;;;;;;;;;;;;-5.73;88.63;100162.14;1609712;88;20722;-81
2022/01/11 03:26:43;;;;;;;;;;;;;;;-5.74;88.57;100161.82;1609047;88;20089;-80
2022/01/11 03:29:12;;;;;;;;;;;;;;;-5.79;88.81;100174.47;1619369;87;20664;-80
2022/01/11 03:31:43;;;;;;;;;;;;;;;-5.79;89.26;100173.13;1624772;87;20144;-82
2022/01/11 03:34:19;;;;;;;;;;;;;;;-5.75;89.41;100171.69;1637662;87;21166;-82
2022/01/11 03:36:39;;;;;;;;;;;;;;;-5.76;89.51;100168.70;1613359;87;20106;-82
2022/01/11 03:39:10;;;;;;;;;;;;;;;-5.76;89.74;100183.41;1572761;89;20194;-83
2022/01/11 03:41:37;;;;;;;;;;;;;;;-5.75;90.18;100181.56;1575806;90;20117;-82
2022/01/11 03:44:10;;;;;;;;;;;;;;;-5.73;90.26;100184.88;1580730;90;20113;-82
2022/01/11 03:46:47;;;;;;;;;;;;;;;-5.73;90.09;100184.36;1563835;90;20129;-81
2022/01/11 03:49:20;;;;;;;;;;;;;;;-5.70;90.58;100191.99;1585150;90;20452;-78
2022/01/11 03:51:50;;;;;;;;;;;;;;;-5.71;90.29;100186.84;1582728;90;20125;-78
2022/01/11 03:54:24;;;;;;;;;;;;;;;-5.71;90.36;100184.99;1570169;90;20145;-77
2022/01/11 03:57:04;;;;;;;;;;;;;;;-5.70;90.72;100186.64;1594515;88;20445;-76
2022/01/11 03:59:39;;;;;;;;;;;;;;;-5.68;90.59;100191.29;1624981;87;21164;-75
2022/01/11 04:02:04;;;;;;;;;;;;;;;-5.67;90.58;100194.80;1626126;87;20096;-76
2022/01/11 04:04:32;;;;;;;;;;;;;;;-5.65;90.80;100191.41;1625534;88;20432;-75
2022/01/11 04:07:07;;;;;;;;;;;;;;;-5.61;90.96;100198.02;1630290;86;20235;-79
2022/01/11 04:09:33;;;;;;;;;;;;;;;-5.60;90.83;100194.84;1628865;87;20187;-80
2022/01/11 04:12:08;;;;;;;;;;;;;;;-5.59;90.99;100195.98;1627920;87;21159;-78
2022/01/11 04:14:38;;;;;;;;;;;;;;;-5.58;91.20;100190.95;1638562;86;20167;-76
2022/01/11 04:17:07;;;;;;;;;;;;;;;-5.57;91.72;100193.94;1634977;86;20148;-79
2022/01/11 04:19:42;;;;;;;;;;;;;;;-5.56;92.05;100198.27;1616094;87;20782;-75
2022/01/11 04:22:07;;;;;;;;;;;;;;;-5.55;92.30;100197.25;1623429;87;20464;-74
2022/01/11 04:24:42;;;;;;;;;;;;;;;-5.54;92.07;100208.27;1604907;87;22471;-75
2022/01/11 04:27:13;;;;;;;;;;;;;;;-5.55;92.33;100204.45;1612096;87;20424;-75
2022/01/11 04:29:39;;;;;;;;;;;;;;;-5.54;92.36;100209.60;1637205;87;20128;-73
2022/01/11 04:32:14;;;;;;;;;;;;;;;-5.58;92.13;100215.03;1617735;87;20111;-75
2022/01/11 04:34:41;;;;;;;;;;;;;;;-5.60;91.96;100222.41;1611531;87;20109;-75
2022/01/11 04:37:11;;;;;;;;;;;;;;;-5.62;92.11;100219.11;1630156;88;21196;-76
2022/01/11 04:39:41;;;;;;;;;;;;;;;-5.63;92.56;100217.45;1602370;87;20152;-76
2022/01/11 04:42:14;;;;;;;;;;;;;;;-5.60;92.54;100220.25;1627916;87;20091;-77
2022/01/11 04:44:44;;;;;;;;;;;;;;;-5.60;92.72;100224.27;1617721;86;20082;-75
2022/01/11 04:47:15;;;;;;;;;;;;;;;-5.60;92.76;100226.94;1608065;88;20470;-76
2022/01/11 04:49:39;;;;;;;;;;;;;;;-5.63;92.42;100222.80;1599488;88;21117;-75
2022/01/11 04:52:09;;;;;;;;;;;;;;;-5.66;92.52;100227.20;1617272;88;20093;-75
2022/01/11 04:54:40;;;;;;;;;;;;;;;-5.63;92.76;100232.67;1619323;88;20215;-76
2022/01/11 04:57:10;;;;;;;;;;;;;;;-5.62;92.82;100240.51;1610032;88;20195;-75
2022/01/11 04:59:37;;;;;;;;;;;;;;;-5.60;92.97;100234.45;1631667;87;20118;-74
2022/01/11 05:02:06;;;;;;;;;;;;;;;-5.57;92.98;100235.91;1616074;87;21810;-75
2022/01/11 05:04:39;;;;;;;;;;;;;;;-5.58;93.21;100232.41;1609835;87;20107;-72
2022/01/11 05:07:21;;;;;;;;;;;;;;;-5.54;93.45;100240.37;1613185;87;20111;-80
2022/01/11 05:09:37;;;;;;;;;;;;;;;-5.51;93.37;100249.86;1628920;87;20144;-78
2022/01/11 05:12:06;;;;;;;;;;;;;;;-5.51;93.32;100240.48;1598911;87;20179;-79
2022/01/11 05:14:37;;;;;;;;;;;;;;;-5.51;93.40;100246.67;1591179;88;20635;-77
2022/01/11 05:17:09;;;;;;;;;;;;;;;-5.54;93.33;100251.06;1614891;87;20095;-79
2022/01/11 05:19:35;;;;;;;;;;;;;;;-5.55;93.55;100249.41;1624142;87;20113;-78
2022/01/11 05:22:04;;;;;;;;;;;;;;;-5.56;94.09;100257.64;1627074;87;20103;-78
2022/01/11 05:24:35;;;;;;;;;;;;;;;-5.58;94.01;100259.67;1600879;88;20491;-77
2022/01/11 05:27:06;;;;;;;;;;;;;;;-5.59;94.37;100262.03;1599205;88;21250;-78
2022/01/11 05:29:38;;;;;;;;;;;;;;;-5.58;94.52;100270.38;1616868;88;20137;-77
2022/01/11 05:32:08;;;;;;;;;;;;;;;-5.57;94.58;100267.51;1610150;88;20110;-77
2022/01/11 05:34:38;;;;;;;;;;;;;;;-5.58;94.42;100271.20;1572236;89;20158;-77
2022/01/11 05:37:06;;;;;;;;;;;;;;;-5.58;94.73;100274.39;1538786;90;20159;-77
2022/01/11 05:39:40;;;;;;;;;;;;;;;-5.58;94.67;100277.89;1619864;86;20115;-76
2022/01/11 05:42:15;;;;;;;;;;;;;;;-5.57;94.59;100278.72;1616535;87;20097;-76
2022/01/11 05:44:42;;;;;;;;;;;;;;;-5.58;94.44;100285.09;1631785;87;20168;-78
2022/01/11 05:47:16;;;;;;;;;;;;;;;-5.57;94.59;100277.38;1624867;87;20802;-78
2022/01/11 05:49:48;;;;;;;;;;;;;;;-5.55;94.46;100288.72;1603642;88;20128;-79
2022/01/11 05:52:19;;;;;;;;;;;;;;;-5.54;94.37;100286.36;1609799;87;21250;-79
2022/01/11 05:54:50;;;;;;;;;;;;;;;-5.52;94.36;100295.02;1598746;88;20093;-79
2022/01/11 05:57:26;;;;;;;;;;;;;;;-5.54;94.21;100293.88;1610627;88;20449;-79
2022/01/11 05:59:58;;;;;;;;;;;;;;;-5.51;94.30;100300.69;1611363;88;20216;-80
2022/01/11 06:02:31;;;;;;;;;;;;;;;-5.47;94.28;100308.14;1600499;88;20098;-77
2022/01/11 06:05:03;;;;;;;;;;;;;;;-5.45;94.04;100308.77;1563485;89;20140;-80
2022/01/11 06:07:29;;;;;;;;;;;;;;;-5.43;93.97;100315.27;1616576;88;20442;-78
2022/01/11 06:09:59;;;;;;;;;;;;;;;-5.42;93.84;100317.75;1629263;87;20101;-79
2022/01/11 06:12:31;;;;;;;;;;;;;;;-5.43;93.92;100321.45;1611933;87;20175;-78
2022/01/11 06:15:16;;;;;;;;;;;;;;;-5.43;94.04;100323.30;1630336;87;20160;-79
2022/01/11 06:17:38;;;;;;;;;;;;;;;-5.42;94.16;100331.64;1613154;87;21159;-78
2022/01/11 06:20:12;;;;;;;;;;;;;;;-5.38;94.56;100332.91;1599979;87;20216;-79
2022/01/11 06:22:40;;;;;;;;;;;;;;;-5.38;94.46;100332.40;1617212;87;20155;-78
2022/01/11 06:25:09;;;;;;;;;;;;;;;-5.35;94.54;100329.84;1616066;87;20107;-79
2022/01/11 06:27:42;;;;;;;;;;;;;;;-5.33;94.65;100334.50;1625545;87;20156;-78
2022/01/11 06:30:24;;;;;;;;;;;;;;;-5.33;94.70;100339.34;1610422;87;20151;-79
2022/01/11 06:32:48;;;;;;;;;;;;;;;-5.34;94.68;100335.01;1623105;87;20101;-79
2022/01/11 06:35:22;;;;;;;;;;;;;;;-5.33;94.62;100339.34;1558951;91;20187;-79
2022/01/11 06:37:55;;;;;;;;;;;;;;;-5.29;94.82;100344.31;1607570;87;20110;-79
2022/01/11 06:40:20;;;;;;;;;;;;;;;-5.28;94.79;100345.45;1622720;87;20141;-79
2022/01/11 06:42:56;;;;;;;;;;;;;;;-5.22;95.12;100346.53;1600860;87;20454;-78
2022/01/11 06:45:24;;;;;;;;;;;;;;;-5.17;95.12;100350.25;1624244;87;20870;-77
2022/01/11 06:48:03;;;;;;;;;;;;;;;-5.12;94.86;100351.00;1591449;87;20449;-83
2022/01/11 06:50:35;;;;;;;;;;;;;;;-5.12;94.68;100351.00;1613818;88;20113;-84
2022/01/11 06:53:03;;;;;;;;;;;;;;;-5.10;94.66;100361.02;1625208;87;20138;-84
2022/01/11 06:55:32;;;;;;;;;;;;;;;-5.08;94.74;100365.66;1613702;87;20661;-84
2022/01/11 06:58:08;;;;;;;;;;;;;;;-5.06;94.65;100352.91;1630565;87;20160;-83
2022/01/11 07:00:34;;;;;;;;;;;;;;;-5.08;94.48;100359.80;1631436;87;20093;-78
2022/01/11 07:03:05;;;;;;;;;;;;;;;-5.07;94.64;100361.97;1629811;87;20165;-83
2022/01/11 07:05:50;;;;;;;;;;;;;;;-5.08;94.30;100368.34;1629104;87;20180;-82
2022/01/11 07:08:21;;;;;;;;;;;;;;;-5.09;94.25;100359.48;1620403;87;21222;-84
2022/01/11 07:10:56;;;;;;;;;;;;;;;-5.07;94.26;100370.00;1606859;87;20093;-75
2022/01/11 07:13:24;;;;;;;;;;;;;;;-5.07;94.32;100360.62;1610070;87;20108;-75
2022/01/11 07:15:54;;;;;;;;;;;;;;;-5.02;94.31;100363.55;1605797;88;20169;-75
2022/01/11 07:18:25;;;;;;;;;;;;;;;-4.97;94.60;100353.08;1617154;87;20084;-76
2022/01/11 07:21:02;;;;;;;;;;;;;;;-4.96;94.16;100360.09;1604693;88;20828;-74
2022/01/11 07:23:31;;;;;;;;;;;;;;;-4.92;94.18;100365.89;1610772;88;20092;-74
2022/01/11 07:26:02;;;;;;;;;;;;;;;-4.88;94.20;100365.81;1620300;87;20104;-74
2022/01/11 07:28:32;;;;;;;;;;;;;;;-4.85;94.16;100366.77;1617115;87;20138;-74
2022/01/11 07:31:05;;;;;;;;;;;;;;;-4.84;94.02;100361.72;1591861;88;20098;-74
2022/01/11 07:33:37;;;;;;;;;;;;;;;-4.81;93.96;100366.17;1554683;90;20142;-73
2022/01/11 07:36:13;;;;;;;;;;;;;;;-4.78;93.57;100369.80;1584469;89;37558;-81
2022/01/11 07:38:43;;;;;;;;;;;;;;;-4.77;93.10;100367.95;1547876;91;20213;-74
2022/01/11 07:41:16;;;;;;;;;;;;;;;-4.79;92.61;100376.70;1619372;88;20196;-77
2022/01/11 07:43:53;;;;;;;;;;;;;;;-4.79;92.66;100372.16;1568389;88;20141;-81
2022/01/11 07:46:34;;;;;;;;;;;;;;;-4.78;92.65;100372.48;1611761;87;20520;-83
2022/01/11 07:49:02;;;;;;;;;;;;;;;-4.75;92.78;100375.28;1619628;86;20113;-88
2022/01/11 07:51:30;;;;;;;;;;;;;;;-4.75;92.36;100377.45;1576777;89;20256;-85
2022/01/11 07:54:05;;;;;;;;;;;;;;;-4.75;92.10;100381.47;1596751;88;20129;-90
2022/01/11 07:56:32;;;;;;;;;;;;;;;-4.75;91.63;100378.79;1589259;88;20159;-87
2022/01/11 07:59:07;;;;;;;;;;;;;;;-4.74;91.57;100379.10;1586306;89;20154;-86
2022/01/11 08:01:37;;;;;;;;;;;;;;;-4.72;91.36;100382.41;1602766;87;20720;-85
2022/01/11 08:04:06;;;;;;;;;;;;;;;-4.72;91.15;100378.91;1610010;88;20153;-81
2022/01/11 08:06:39;;;;;;;;;;;;;;;-4.70;91.12;100383.05;1600812;88;20113;-85
2022/01/11 08:09:10;;;;;;;;;;;;;;;-4.67;91.32;100384.50;1586602;89;20252;-85
2022/01/11 08:11:41;;;;;;;;;;;;;;;-4.63;91.25;100383.60;1579347;89;21204;-83
2022/01/11 08:14:13;;;;;;;;;;;;;;;-4.59;91.21;100387.52;1588291;88;20136;-82
2022/01/11 08:16:39;;;;;;;;;;;;;;;-4.59;91.29;100380.81;1630690;86;20444;-78
2022/01/11 08:19:09;;;;;;;;;;;;;;;-4.59;91.33;100392.36;1620396;85;20210;-79
2022/01/11 08:21:38;;;;;;;;;;;;;;;-4.61;90.91;100381.01;1632249;86;20152;-81
2022/01/11 08:24:10;;;;;;;;;;;;;;;-4.60;90.81;100383.17;1630013;85;21150;-82
2022/01/11 08:26:40;;;;;;;;;;;;;;;-4.56;91.00;100388.45;1626791;86;20151;-76
2022/01/11 08:29:09;;;;;;;;;;;;;;;-4.48;90.90;100394.48;1624347;87;20177;-73
2022/01/11 08:31:42;;;;;;;;;;;;;;;-4.40;90.81;100388.14;1656504;85;20109;-73
2022/01/11 08:34:26;;;;;;;;;;;;;;;-4.28;90.81;100390.58;1626576;86;20439;-72
2022/01/11 08:36:44;;;;;;;;;;;;;;;-4.21;89.98;100390.11;1628227;86;21175;-74
2022/01/11 08:39:15;;;;;;;;;;;;;;;-4.22;89.30;100391.12;1633367;86;20156;-74
2022/01/11 08:41:44;;;;;;;;;;;;;;;-4.22;89.01;100388.45;1624549;86;20131;-74
2022/01/11 08:44:14;;;;;;;;;;;;;;;-4.23;89.03;100388.13;1626856;86;20431;-73
2022/01/11 08:46:48;;;;;;;;;;;;;;;-4.21;88.73;100378.55;1628094;86;20140;-73
2022/01/11 08:49:17;;;;;;;;;;;;;;;-4.21;88.57;100394.13;1634549;85;20262;-73
2022/01/11 08:51:46;;;;;;;;;;;;;;;-4.23;88.44;100388.13;1627250;86;20139;-80
2022/01/11 08:54:18;;;;;;;;;;;;;;;-4.25;88.00;100385.34;1630306;85;20186;-75
2022/01/11 08:56:52;;;;;;;;;;;;;;;-4.23;88.20;100385.45;1629028;86;20442;-78
2022/01/11 08:59:17;;;;;;;;;;;;;;;-4.21;88.20;100387.94;1625953;86;20124;-73
2022/01/11 09:01:47;;;;;;;;;;;;;;;-4.23;88.35;100386.80;1630380;86;21436;-73
2022/01/11 09:04:18;;;;;;;;;;;;;;;-4.17;88.47;100391.36;1585135;88;20151;-72
2022/01/11 09:06:58;;;;;;;;;;;;;;;-4.11;88.44;100383.86;1604728;88;20156;-72
2022/01/11 09:09:20;;;;;;;;;;;;;;;-4.01;88.14;100385.63;1567143;89;20191;-72
2022/01/11 09:11:51;;;;;;;;;;;;;;;-3.98;87.77;100383.05;1581592;88;20173;-72
2022/01/11 09:14:26;;;;;;;;;;;;;;;-3.91;87.99;100386.59;1604452;88;21129;-74
2022/01/11 09:17:01;;;;;;;;;;;;;;;-3.86;87.78;100384.64;1622275;88;20489;-74
2022/01/11 09:19:27;;;;;;;;;;;;;;;-3.86;87.78;100385.47;1595145;88;20165;-72
2022/01/11 09:21:56;;;;;;;;;;;;;;;-3.84;87.56;100385.27;1590925;85;20181;-71
2022/01/11 09:24:29;;;;;;;;;;;;;;;-3.84;87.75;100379.91;1568125;90;20211;-72
2022/01/11 09:26:55;;;;;;;;;;;;;;;-3.85;87.71;100376.91;1574375;88;20606;-75
2022/01/11 09:29:26;;;;;;;;;;;;;;;-3.87;87.47;100376.28;1581225;89;21713;-74
2022/01/11 09:31:55;;;;;;;;;;;;;;;-3.91;88.35;100377.20;1615723;87;20196;-74
2022/01/11 09:34:24;;;;;;;;;;;;;;;-3.97;88.56;100379.86;1616371;86;22196;-73
2022/01/11 09:36:50;;;;;;;;;;;;;;;-4.00;88.47;100385.11;1611924;87;20200;-74
2022/01/11 09:39:17;;;;;;;;;;;;;;;-4.05;88.38;100383.06;1632950;87;20678;-73
2022/01/11 09:41:44;;;;;;;;;;;;;;;-4.08;89.05;100382.12;1627172;87;20149;-72
2022/01/11 09:44:13;;;;;;;;;;;;;;;-4.07;89.17;100381.09;1622934;87;20176;-72
2022/01/11 09:46:41;;;;;;;;;;;;;;;-4.06;88.96;100386.77;1606411;87;21876;-75
2022/01/11 09:49:09;;;;;;;;;;;;;;;-4.03;89.53;100390.36;1619773;86;20209;-74
2022/01/11 09:51:39;;;;;;;;;;;;;;;-3.99;89.78;100389.45;1624400;86;21248;-75
2022/01/11 09:54:12;;;;;;;;;;;;;;;-3.94;89.63;100388.84;1605032;86;20160;-75
2022/01/11 09:56:39;;;;;;;;;;;;;;;-3.89;90.27;100386.39;1604525;86;20157;-74
2022/01/11 10:02:22;;;;;;;;;;;;;;;-3.69;90.00;100385.94;1627259;86;20184;-74
2022/01/11 10:04:59;;;;;;;;;;;;;;;-3.68;88.90;100391.10;1608800;87;21162;-74
2022/01/11 10:07:40;;;;;;;;;;;;;;;-3.64;89.36;100386.67;1631560;87;20466;-75
2022/01/11 10:10:12;;;;;;;;;;;;;;;-3.62;89.13;100386.78;1618654;87;20154;-73
2022/01/11 10:12:43;;;;;;;;;;;;;;;-3.59;89.51;100395.77;1636337;87;20156;-74
2022/01/11 10:15:10;;;;;;;;;;;;;;;-3.59;89.57;100401.14;1633529;87;20150;-74
2022/01/11 10:17:44;;;;;;;;;;;;;;;-3.59;89.44;100396.29;1626447;87;21127;-73
2022/01/11 10:20:14;;;;;;;;;;;;;;;-3.52;89.60;100399.81;1617038;87;20173;-74
2022/01/11 10:22:49;;;;;;;;;;;;;;;-3.42;89.64;100392.16;1626160;86;20192;-74
2022/01/11 10:25:15;;;;;;;;;;;;;;;-3.34;88.85;100387.94;1628701;87;20598;-73
2022/01/11 10:27:42;;;;;;;;;;;;;;;-3.35;88.32;100391.14;1608363;87;20485;-74
2022/01/11 10:30:12;;;;;;;;;;;;;;;-3.33;88.89;100386.91;1617592;87;21202;-73
2022/01/11 10:32:41;;;;;;;;;;;;;;;-3.32;88.96;100392.08;1592707;88;20176;-75
2022/01/11 10:35:12;;;;;;;;;;;;;;;-3.33;89.13;100389.59;1593479;88;20198;-73
2022/01/11 10:37:41;;;;;;;;;;;;;;;-3.32;88.61;100388.56;1631430;87;20187;-74
2022/01/11 10:40:20;;;;;;;;;;;;;;;-3.29;89.05;100388.16;1627574;87;20447;-73
2022/01/11 10:42:50;;;;;;;;;;;;;;;-3.27;88.95;100386.61;1610818;87;21829;-73
2022/01/11 10:45:20;;;;;;;;;;;;;;;-3.29;88.85;100388.16;1607693;87;20697;-74
2022/01/11 10:47:49;;;;;;;;;;;;;;;-3.28;89.00;100381.75;1619325;87;20167;-72
2022/01/11 10:50:28;;;;;;;;;;;;;;;-3.24;89.19;100391.57;1615102;87;20291;-74
2022/01/11 10:52:53;;;;;;;;;;;;;;;-3.18;89.05;100388.89;1609773;87;20475;-74
2022/01/11 10:55:22;;;;;;;;;;;;;;;-3.13;88.82;100393.65;1625548;87;21258;-74
2022/01/11 10:57:51;;;;;;;;;;;;;;;-3.08;89.37;100389.31;1616937;87;20157;-74
2022/01/11 11:00:23;;;;;;;;;;;;;;;-3.03;88.94;100392.72;1617727;88;20416;-74
2022/01/11 11:02:54;;;;;;;;;;;;;;;-3.02;88.70;100389.83;1566423;89;20805;-74
2022/01/11 11:05:30;;;;;;;;;;;;;;;-3.01;88.54;100389.31;1550516;91;20520;-74
2022/01/11 11:08:05;;;;;;;;;;;;;;;-3.05;88.34;100385.39;1530808;93;21976;-74
2022/01/11 11:10:38;;;;;;;;;;;;;;;-3.13;87.78;100386.42;1578487;89;20460;-74
2022/01/11 11:13:05;;;;;;;;;;;;;;;-3.16;88.87;100386.00;1576073;89;20152;-74
2022/01/11 11:15:35;;;;;;;;;;;;;;;-3.17;89.02;100389.20;1571777;89;20639;-74
2022/01/11 11:18:03;;;;;;;;;;;;;;;-3.09;89.07;100378.77;1591465;89;20246;-74
2022/01/11 11:20:35;;;;;;;;;;;;;;;-2.98;88.97;100381.36;1596269;89;21859;-74
2022/01/11 11:23:02;;;;;;;;;;;;;;;-2.92;88.26;100384.05;1605667;89;20480;-74
2022/01/11 11:25:28;;;;;;;;;;;;;;;-2.93;87.79;100391.80;1600969;89;20715;-74
2022/01/11 11:27:55;;;;;;;;;;;;;;;-2.96;87.30;100384.15;1599239;88;20220;-74
2022/01/11 11:30:21;;;;;;;;;;;;;;;-3.02;87.64;100387.14;1595385;89;20473;-74
2022/01/11 11:32:48;;;;;;;;;;;;;;;-3.08;87.70;100389.83;1600919;89;21151;-74
2022/01/11 11:35:15;;;;;;;;;;;;;;;-3.16;88.13;100386.00;1600352;88;20488;-74
2022/01/11 11:37:42;;;;;;;;;;;;;;;-3.21;88.38;100381.77;1595580;89;20150;-74
2022/01/11 11:40:14;;;;;;;;;;;;;;;-3.28;88.21;100387.64;1599506;89;22169;-74
2022/01/11 11:42:41;;;;;;;;;;;;;;;-3.35;88.15;100378.23;1598232;89;20187;-74
2022/01/11 11:45:21;;;;;;;;;;;;;;;-3.39;89.04;100383.19;1596905;88;21822;-73
2022/01/11 11:47:48;;;;;;;;;;;;;;;-3.41;89.42;100382.56;1590597;89;20194;-74
2022/01/11 11:50:17;;;;;;;;;;;;;;;-3.41;88.65;100382.56;1595435;89;20192;-74
2022/01/11 11:52:46;;;;;;;;;;;;;;;-3.40;88.93;100387.42;1600663;89;20171;-74
2022/01/11 11:55:23;;;;;;;;;;;;;;;-3.31;89.11;100394.25;1593353;89;20445;-74
2022/01/11 11:57:52;;;;;;;;;;;;;;;-3.20;88.21;100383.41;1599337;89;21092;-74
2022/01/11 12:00:22;;;;;;;;;;;;;;;-3.07;87.96;100381.56;1601174;88;20182;-74
2022/01/11 12:02:51;;;;;;;;;;;;;;;-2.90;87.08;100390.04;1586109;88;20228;-75
2022/01/11 12:05:37;;;;;;;;;;;;;;;-2.76;86.92;100382.77;1573840;90;20152;-73
2022/01/11 12:08:36;;;;;;;;;;;;;;;-2.70;86.11;100384.10;1577061;88;20257;-74
2022/01/11 12:13:56;;;;;;;;;;;;;;;-2.69;85.31;100382.23;1569047;90;20440;-74
2022/01/11 12:19:02;;;;;;;;;;;;;;;-2.83;84.96;100387.31;1605218;87;20192;-75
2022/01/11 12:24:01;;;;;;;;;;;;;;;-2.98;85.54;100390.25;1605308;86;20564;-76
2022/01/11 12:26:29;;;;;;;;;;;;;;;-3.07;85.86;100396.34;1642712;85;20245;-75
2022/01/11 12:29:14;;;;;;;;;;;;;;;-3.19;86.32;100396.64;1625146;86;20409;-75
2022/01/11 12:31:46;;;;;;;;;;;;;;;-3.27;87.05;100400.04;1608227;87;20227;-75
2022/01/11 12:34:13;;;;;;;;;;;;;;;-3.33;87.21;100395.80;1603264;88;20285;-75
2022/01/11 12:36:53;;;;;;;;;;;;;;;-3.36;87.53;100398.06;1581037;89;21250;-74
2022/01/11 12:39:20;;;;;;;;;;;;;;;-3.39;87.51;100398.47;1615306;87;20173;-75
2022/01/11 12:41:48;;;;;;;;;;;;;;;-3.46;87.69;100399.80;1579919;89;20156;-74
2022/01/11 12:45:35;;;;;;;;;;;;;;;-3.50;87.94;100393.21;1560392;90;20163;-75
2022/01/11 12:47:05;;;;;;;;;;;;;;;-3.49;88.16;100397.55;1615623;87;20186;-75
2022/01/11 12:49:32;;;;;;;;;;;;;;;-3.49;88.05;100394.04;1599204;87;21801;-73
2022/01/11 12:52:09;;;;;;;;;;;;;;;-3.46;87.76;100403.83;1582204;89;20455;-75
2022/01/11 12:54:40;;;;;;;;;;;;;;;-3.42;87.57;100406.93;1565807;89;20483;-74
2022/01/11 12:57:12;;;;;;;;;;;;;;;-3.37;86.70;100396.41;1615046;87;20167;-76
2022/01/11 12:59:38;;;;;;;;;;;;;;;-3.36;85.13;100400.75;1647372;86;20174;-74
2022/01/11 13:02:09;;;;;;;;;;;;;;;-3.38;84.66;100411.69;1642553;85;21065;-76
2022/01/11 13:04:40;;;;;;;;;;;;;;;-3.41;83.47;100407.24;1636066;86;20230;-73
2022/01/11 13:07:17;;;;;;;;;;;;;;;-3.44;83.03;100411.16;1645282;85;20193;-78